Time;durP1;ratioP1;P1;durP2;ratioP2;P2;SDS_P1;SDS_P2;PMS_P1;PMS_P2;Temp;Humidity;BMP_temperature;BMP_pressure;BME280_temperature;BME280_humidity;BME280_pressure;Samples;Min_cycle;Max_cycle;Signal;HPM_P1;HPM_P2
2023/09/28 00:02:50;;;;;;;0.30;0.30;;;;;;;20.83;62.47;101319.66;5130773;28;20490;-80
2023/09/28 00:05:19;;;;;;;0.10;0.10;;;;;;;20.80;62.61;101322.53;5126659;27;20024;-80
2023/09/28 00:07:46;;;;;;;0.77;0.20;;;;;;;20.82;62.64;101334.06;5126462;28;20036;-80
2023/09/28 00:10:15;;;;;;;0.73;0.73;;;;;;;20.83;62.57;101336.69;5118019;28;20026;-81
2023/09/28 00:12:42;;;;;;;0.20;0.20;;;;;;;20.75;63.02;101336.25;5132056;28;20539;-80
2023/09/28 00:15:10;;;;;;;0.30;0.30;;;;;;;20.78;62.67;101333.38;5127420;28;20082;-79
2023/09/28 00:17:38;;;;;;;0.00;0.00;;;;;;;20.76;62.92;101339.78;5114666;28;20027;-80
2023/09/28 00:20:09;;;;;;;0.30;0.30;;;;;;;20.82;62.91;101331.38;5128196;28;20090;-80
2023/09/28 00:22:36;;;;;;;0.10;0.10;;;;;;;20.82;63.05;101337.66;5131513;27;20031;-80
2023/09/28 00:25:10;;;;;;;0.40;0.40;;;;;;;20.83;62.99;101333.13;5131159;27;20035;-81
2023/09/28 00:27:38;;;;;;;0.20;0.20;;;;;;;20.85;62.85;101334.78;5128575;27;20122;-79
2023/09/28 00:30:08;;;;;;;0.00;0.00;;;;;;;20.88;62.77;101331.03;5131288;27;20057;-80
2023/09/28 00:32:35;;;;;;;0.17;0.17;;;;;;;20.87;62.49;101340.06;5114830;28;20031;-80
2023/09/28 00:35:04;;;;;;;1.75;0.52;;;;;;;20.80;62.76;101338.69;5124643;28;20274;-80
2023/09/28 00:37:30;;;;;;;0.10;0.10;;;;;;;20.72;63.36;101349.88;5130848;27;20107;-81
2023/09/28 00:39:57;;;;;;;0.00;0.00;;;;;;;20.73;63.34;101357.00;5120686;27;20511;-80
2023/09/28 00:42:24;;;;;;;0.30;0.30;;;;;;;20.73;63.30;101356.13;5119319;28;20039;-80
2023/09/28 00:44:51;;;;;;;0.32;0.32;;;;;;;20.71;63.19;101349.91;5123592;28;20032;-78
2023/09/28 00:47:18;;;;;;;0.00;0.00;;;;;;;20.60;63.76;101340.63;5126694;27;20049;-80
2023/09/28 00:49:45;;;;;;;1.00;0.38;;;;;;;20.60;63.87;101346.00;5122687;27;20114;-80
2023/09/28 00:52:16;;;;;;;0.05;0.05;;;;;;;20.56;64.20;101351.63;5124917;28;20035;-80
2023/09/28 00:54:47;;;;;;;0.30;0.30;;;;;;;20.53;64.45;101349.97;5120354;28;20055;-81
2023/09/28 00:57:13;;;;;;;0.00;0.00;;;;;;;20.50;64.52;101351.00;5114504;28;20692;-81
2023/09/28 00:59:40;;;;;;;0.17;0.17;;;;;;;20.56;64.09;101349.81;5105117;28;20161;-81
2023/09/28 01:02:08;;;;;;;0.17;0.17;;;;;;;20.55;64.18;101342.69;5113944;28;20027;-80
2023/09/28 01:04:36;;;;;;;0.22;0.22;;;;;;;20.45;64.49;101352.19;5113218;28;20068;-81
2023/09/28 01:07:03;;;;;;;0.10;0.10;;;;;;;20.48;64.56;101362.81;5116502;28;20107;-80
2023/09/28 01:09:29;;;;;;;0.20;0.20;;;;;;;20.42;65.14;101369.38;5115094;28;20027;-80
2023/09/28 01:11:55;;;;;;;0.10;0.10;;;;;;;20.38;65.21;101364.25;5111709;28;20047;-79
2023/09/28 01:14:22;;;;;;;1.25;0.70;;;;;;;20.27;65.98;101376.44;5098957;28;20028;-81
2023/09/28 01:16:49;;;;;;;0.20;0.20;;;;;;;20.36;65.37;101359.81;5115898;28;20020;-79
2023/09/28 01:19:15;;;;;;;0.10;0.10;;;;;;;20.44;65.27;101369.31;5129322;28;20107;-80
2023/09/28 01:21:42;;;;;;;0.10;0.10;;;;;;;20.41;65.73;101370.34;5113241;28;20031;-81
2023/09/28 01:24:09;;;;;;;5.47;0.63;;;;;;;20.33;66.13;101370.72;5117435;28;20051;-81
2023/09/28 01:26:35;;;;;;;0.20;0.20;;;;;;;20.44;65.58;101372.00;5105987;28;20512;-80
2023/09/28 01:29:01;;;;;;;0.00;0.00;;;;;;;20.42;65.83;101380.16;5112374;28;20077;-81
2023/09/28 01:31:27;;;;;;;0.10;0.10;;;;;;;20.45;65.88;101385.38;5106807;28;20032;-81
2023/09/28 01:33:54;;;;;;;0.17;0.17;;;;;;;20.46;65.58;101380.84;5105191;28;20047;-79
2023/09/28 01:36:20;;;;;;;0.13;0.13;;;;;;;20.34;66.41;101380.56;5095958;28;20107;-80
2023/09/28 01:38:58;;;;;;;0.20;0.20;;;;;;;20.43;65.85;101372.97;5103091;28;20027;-78
2023/09/28 01:41:24;;;;;;;0.10;0.10;;;;;;;20.40;65.98;101375.78;5108799;28;20046;-81
2023/09/28 01:43:50;;;;;;;1.02;1.02;;;;;;;20.40;65.62;101368.63;5115301;28;20047;-80
2023/09/28 01:46:16;;;;;;;0.00;0.00;;;;;;;20.30;66.36;101367.34;5107766;28;20027;-80
2023/09/28 01:48:43;;;;;;;1.25;0.85;;;;;;;20.29;65.93;101374.56;5110579;28;20036;-80
2023/09/28 01:51:09;;;;;;;0.00;0.00;;;;;;;20.25;66.29;101372.97;5113827;28;20062;-79
2023/09/28 01:53:35;;;;;;;0.00;0.00;;;;;;;20.16;67.36;101378.81;5117278;28;20023;-80
2023/09/28 01:56:02;;;;;;;0.60;0.60;;;;;;;20.04;67.43;101386.59;5114442;28;20085;-81
2023/09/28 01:58:29;;;;;;;0.17;0.17;;;;;;;20.15;67.07;101391.41;5115778;28;20145;-80
2023/09/28 02:00:56;;;;;;;0.52;0.52;;;;;;;20.08;67.70;101391.81;5114783;28;20027;-80
2023/09/28 02:03:22;;;;;;;0.10;0.10;;;;;;;20.08;67.72;101394.50;5109152;28;20032;-80
2023/09/28 02:05:49;;;;;;;0.22;0.22;;;;;;;20.10;67.62;101400.66;5108592;28;20114;-81
2023/09/28 02:08:15;;;;;;;0.00;0.00;;;;;;;20.11;67.42;101402.41;5110778;28;20074;-80
2023/09/28 02:10:42;;;;;;;0.00;0.00;;;;;;;20.12;67.46;101394.25;5107799;28;20059;-80
2023/09/28 02:13:09;;;;;;;0.15;0.15;;;;;;;20.17;67.14;101396.72;5114374;28;20023;-79
2023/09/28 02:15:35;;;;;;;0.20;0.20;;;;;;;20.07;67.73;101398.16;5108504;28;20505;-80
2023/09/28 02:18:01;;;;;;;0.00;0.00;;;;;;;20.06;67.62;101405.31;5102125;28;20119;-80
2023/09/28 02:20:30;;;;;;;0.10;0.10;;;;;;;20.13;66.98;101405.91;5107260;28;20028;-80
2023/09/28 02:22:57;;;;;;;0.03;0.03;;;;;;;20.01;67.48;101407.38;5113718;28;20030;-80
2023/09/28 02:25:24;;;;;;;0.05;0.05;;;;;;;20.08;67.02;101397.19;5114878;28;20054;-80
2023/09/28 02:27:52;;;;;;;0.30;0.30;;;;;;;20.10;66.83;101389.91;5114155;28;20024;-79
2023/09/28 02:30:20;;;;;;;0.00;0.00;;;;;;;20.05;67.12;101390.16;5110727;28;20028;-80
2023/09/28 02:32:48;;;;;;;0.20;0.20;;;;;;;20.00;67.02;101390.38;5114311;28;20028;-80
2023/09/28 02:35:16;;;;;;;0.00;0.00;;;;;;;20.00;66.79;101386.81;5105571;28;20118;-80
2023/09/28 02:37:44;;;;;;;0.35;0.35;;;;;;;20.01;66.74;101383.19;5113988;28;20114;-81
2023/09/28 02:40:12;;;;;;;0.00;0.00;;;;;;;20.04;66.24;101383.88;5113912;28;20035;-80
2023/09/28 02:42:39;;;;;;;0.10;0.10;;;;;;;20.01;66.15;101386.75;5113541;28;20023;-80
2023/09/28 02:45:11;;;;;;;0.15;0.15;;;;;;;20.04;65.97;101391.97;5114680;28;20508;-80
2023/09/28 02:47:43;;;;;;;0.08;0.08;;;;;;;19.95;66.29;101387.06;5101150;28;20493;-80
2023/09/28 02:50:12;;;;;;;1.55;1.02;;;;;;;19.95;65.92;101403.19;5098978;28;20039;-79
2023/09/28 02:52:41;;;;;;;0.05;0.05;;;;;;;19.82;65.86;101402.03;5111083;28;20035;-80
2023/09/28 02:55:08;;;;;;;0.10;0.10;;;;;;;19.89;65.69;101403.50;5114319;28;20102;-80
2023/09/28 02:57:36;;;;;;;0.00;0.00;;;;;;;19.90;65.74;101405.25;5100209;28;20073;-80
2023/09/28 03:00:12;;;;;;;0.30;0.30;;;;;;;19.87;65.58;101411.63;5101611;28;20078;-80
2023/09/28 03:02:38;;;;;;;0.00;0.00;;;;;;;19.82;65.86;101420.84;5113418;28;20444;-80
2023/09/28 03:05:07;;;;;;;0.00;0.00;;;;;;;19.82;65.75;101420.84;5112924;28;20031;-80
2023/09/28 03:07:34;;;;;;;0.00;0.00;;;;;;;19.83;65.70;101425.34;5103904;28;20032;-77
2023/09/28 03:10:02;;;;;;;0.00;0.00;;;;;;;19.72;65.90;101428.50;5111876;28;20541;-80
2023/09/28 03:12:28;;;;;;;0.22;0.22;;;;;;;19.63;66.17;101435.22;5105011;28;20057;-80
2023/09/28 03:14:54;;;;;;;0.20;0.20;;;;;;;19.64;66.20;101453.09;5111207;28;20099;-80
2023/09/28 03:17:21;;;;;;;0.10;0.10;;;;;;;19.65;66.04;101448.56;5106524;28;20120;-80
2023/09/28 03:19:47;;;;;;;0.00;0.00;;;;;;;19.55;66.25;101456.19;5100188;28;20035;-80
2023/09/28 03:22:13;;;;;;;0.20;0.20;;;;;;;19.49;66.09;101467.25;5109235;28;20386;-80
2023/09/28 03:24:39;;;;;;;0.00;0.00;;;;;;;19.49;65.83;101475.31;5110817;28;20115;-79
2023/09/28 03:27:08;;;;;;;0.03;0.03;;;;;;;19.53;65.65;101476.91;5102378;28;20483;-80
2023/09/28 03:29:34;;;;;;;0.65;0.65;;;;;;;19.48;65.46;101473.59;5107673;28;20479;-80
2023/09/28 03:32:00;;;;;;;0.10;0.10;;;;;;;19.56;65.17;101479.44;5103385;28;20035;-80
2023/09/28 03:34:26;;;;;;;0.03;0.03;;;;;;;19.42;64.75;101484.63;5113392;28;20024;-77
2023/09/28 03:36:53;;;;;;;0.00;0.00;;;;;;;19.51;64.62;101489.56;5107549;28;20156;-80
2023/09/28 03:39:19;;;;;;;1.25;0.75;;;;;;;19.56;64.47;101488.41;5103030;28;20036;-79
2023/09/28 03:41:45;;;;;;;0.98;0.90;;;;;;;19.30;64.22;101503.06;5112723;28;20153;-80
2023/09/28 03:44:11;;;;;;;0.17;0.17;;;;;;;19.31;63.66;101496.72;5108732;28;20043;-80
2023/09/28 03:46:37;;;;;;;0.60;0.60;;;;;;;19.34;63.67;101504.66;5111393;28;20102;-79
2023/09/28 03:49:04;;;;;;;0.65;0.65;;;;;;;19.36;63.19;101486.63;5095052;28;20039;-80
2023/09/28 03:51:30;;;;;;;0.63;0.63;;;;;;;19.51;63.24;101481.50;5112390;28;20076;-79
2023/09/28 03:53:56;;;;;;;0.68;0.68;;;;;;;19.62;62.89;101487.22;5107078;28;20034;-79
2023/09/28 03:56:22;;;;;;;0.20;0.20;;;;;;;19.60;62.78;101493.63;5112468;28;20077;-79
2023/09/28 03:58:48;;;;;;;0.10;0.10;;;;;;;19.61;62.78;101490.84;5109129;28;20039;-80
2023/09/28 04:01:15;;;;;;;0.10;0.10;;;;;;;19.67;62.53;101509.38;5103588;28;20028;-80
2023/09/28 04:03:41;;;;;;;0.52;0.52;;;;;;;19.62;62.76;101516.78;5107681;28;20065;-80
2023/09/28 04:06:08;;;;;;;0.43;0.43;;;;;;;19.65;62.59;101518.47;5104370;28;20107;-79
2023/09/28 04:08:34;;;;;;;0.00;0.00;;;;;;;19.62;62.72;101503.34;5104384;28;20040;-78
2023/09/28 04:11:00;;;;;;;0.10;0.10;;;;;;;19.48;62.90;101508.53;5104839;28;20024;-78
2023/09/28 04:13:27;;;;;;;0.30;0.30;;;;;;;19.42;63.32;101517.72;5113162;28;20051;-78
2023/09/28 04:15:53;;;;;;;0.20;0.20;;;;;;;19.47;63.39;101509.47;5115721;28;20034;-78
2023/09/28 04:18:19;;;;;;;0.10;0.10;;;;;;;19.43;63.66;101513.22;5123022;28;20098;-80
2023/09/28 04:20:45;;;;;;;0.00;0.00;;;;;;;19.42;63.91;101517.72;5113849;28;20039;-80
2023/09/28 04:23:12;;;;;;;0.10;0.10;;;;;;;19.44;63.87;101521.22;5096653;28;20024;-80
2023/09/28 04:25:38;;;;;;;0.10;0.10;;;;;;;19.51;63.82;101532.56;5113404;28;20028;-79
2023/09/28 04:28:05;;;;;;;0.10;0.10;;;;;;;19.51;63.78;101527.19;5113271;28;20111;-80
2023/09/28 04:30:31;;;;;;;0.10;0.10;;;;;;;19.49;63.85;101537.13;5107279;28;20368;-80
2023/09/28 04:32:57;;;;;;;22.48;0.80;;;;;;;19.49;63.80;101524.56;5116395;28;20129;-80
2023/09/28 04:35:23;;;;;;;0.22;0.22;;;;;;;19.45;64.38;101527.47;5117837;28;20024;-80
2023/09/28 04:37:50;;;;;;;0.00;0.00;;;;;;;19.46;64.12;101535.44;5113379;28;20032;-79
2023/09/28 04:40:16;;;;;;;0.00;0.00;;;;;;;19.22;64.90;101541.00;5114065;28;20086;-80
2023/09/28 04:42:42;;;;;;;0.00;0.00;;;;;;;19.34;64.50;101555.72;5115655;28;20040;-79
2023/09/28 04:45:10;;;;;;;0.32;0.32;;;;;;;19.20;64.77;101555.44;5110914;28;20028;-78
2023/09/28 04:47:36;;;;;;;0.80;0.68;;;;;;;19.18;64.94;101543.91;5104540;28;20051;-80
2023/09/28 04:50:04;;;;;;;13.27;1.27;;;;;;;19.27;64.43;101543.50;5111372;28;20502;-80
2023/09/28 04:52:30;;;;;;;0.10;0.10;;;;;;;19.26;64.32;101544.44;5115662;28;20110;-80
2023/09/28 04:54:57;;;;;;;0.00;0.00;;;;;;;19.21;64.73;101551.81;5111612;28;20752;-79
2023/09/28 04:57:25;;;;;;;2.60;2.40;;;;;;;19.27;64.42;101551.56;5115858;28;20027;-79
2023/09/28 04:59:51;;;;;;;1.85;1.73;;;;;;;19.30;64.40;101554.13;5112058;28;20027;-79
2023/09/28 05:02:17;;;;;;;0.00;0.00;;;;;;;19.29;64.48;101548.78;5111441;28;20046;-80
2023/09/28 05:04:43;;;;;;;0.10;0.10;;;;;;;19.21;64.40;101549.13;5112840;27;20046;-80
2023/09/28 05:07:09;;;;;;;1.77;0.80;;;;;;;19.12;64.55;101555.78;5113893;28;20128;-80
2023/09/28 05:09:35;;;;;;;0.00;0.00;;;;;;;19.02;64.87;101566.06;5111868;28;20030;-78
2023/09/28 05:12:02;;;;;;;0.30;0.30;;;;;;;18.99;65.05;101574.28;5095306;28;20522;-80
2023/09/28 05:14:28;;;;;;;0.10;0.10;;;;;;;18.94;65.22;101575.41;5112035;28;20123;-79
2023/09/28 05:16:54;;;;;;;0.00;0.00;;;;;;;18.81;65.40;101570.53;5112748;28;20031;-80
2023/09/28 05:19:21;;;;;;;0.90;0.47;;;;;;;18.85;65.29;101577.50;5113657;28;20050;-79
2023/09/28 05:21:47;;;;;;;0.55;0.55;;;;;;;18.78;65.43;101569.78;5107503;28;20039;-79
2023/09/28 05:24:13;;;;;;;0.00;0.00;;;;;;;18.80;65.08;101568.78;5111450;28;20395;-80
2023/09/28 05:26:40;;;;;;;0.00;0.00;;;;;;;18.71;65.53;101566.50;5104436;28;20513;-79
2023/09/28 05:29:06;;;;;;;0.10;0.10;;;;;;;18.82;65.34;101563.38;5101974;28;20042;-80
2023/09/28 05:31:33;;;;;;;0.20;0.20;;;;;;;18.79;65.27;101579.59;5111037;28;20023;-80
2023/09/28 05:33:59;;;;;;;0.00;0.00;;;;;;;18.81;65.11;101580.41;5110108;28;20031;-79
2023/09/28 05:36:25;;;;;;;0.00;0.00;;;;;;;18.76;65.40;101570.72;5106358;28;20065;-80
2023/09/28 05:38:51;;;;;;;0.10;0.10;;;;;;;18.76;65.24;101568.03;5113300;28;20039;-81
2023/09/28 05:41:17;;;;;;;0.10;0.10;;;;;;;18.66;65.50;101580.13;5109553;28;20043;-79
2023/09/28 05:43:43;;;;;;;0.35;0.35;;;;;;;18.66;65.36;101581.94;5112683;28;20501;-79
2023/09/28 05:46:09;;;;;;;0.10;0.10;;;;;;;18.63;65.39;101588.31;5113328;28;20101;-80
2023/09/28 05:48:37;;;;;;;0.10;0.10;;;;;;;18.48;65.84;101588.94;5114476;28;20115;-79
2023/09/28 05:51:03;;;;;;;0.10;0.10;;;;;;;18.50;65.70;101585.25;5114376;28;20482;-78
2023/09/28 05:53:29;;;;;;;0.10;0.10;;;;;;;18.45;65.82;101589.94;5114425;28;20049;-78
2023/09/28 05:55:55;;;;;;;0.03;0.03;;;;;;;18.41;66.04;101575.78;5106023;28;20401;-81
2023/09/28 05:58:21;;;;;;;0.10;0.10;;;;;;;18.32;66.17;101589.56;5100415;28;20028;-80
2023/09/28 06:00:48;;;;;;;0.10;0.10;;;;;;;18.31;65.89;101598.56;5114481;28;20115;-80
2023/09/28 06:03:14;;;;;;;1.08;0.90;;;;;;;18.19;66.76;101596.38;5114847;28;20110;-80
2023/09/28 06:05:40;;;;;;;0.22;0.22;;;;;;;18.14;66.83;101595.69;5106563;28;20485;-81
2023/09/28 06:08:06;;;;;;;0.10;0.10;;;;;;;18.03;66.88;101605.03;5101328;28;20479;-80
2023/09/28 06:10:33;;;;;;;0.00;0.00;;;;;;;17.99;67.32;101595.34;5110452;28;20127;-79
2023/09/28 06:12:59;;;;;;;0.30;0.30;;;;;;;17.99;67.37;101614.09;5113463;28;20031;-81
2023/09/28 06:15:25;;;;;;;0.00;0.00;;;;;;;18.02;67.07;101621.16;5114106;28;20028;-79
2023/09/28 06:17:51;;;;;;;0.38;0.38;;;;;;;18.00;67.34;101625.72;5113571;28;20069;-80
2023/09/28 06:20:17;;;;;;;5.00;1.85;;;;;;;18.00;67.16;101625.72;5112415;28;20027;-80
2023/09/28 06:22:44;;;;;;;0.20;0.20;;;;;;;18.02;67.00;101619.38;5114087;28;20102;-81
2023/09/28 06:25:10;;;;;;;1.58;0.70;;;;;;;17.94;67.70;101616.09;5113207;28;20055;-79
2023/09/28 06:27:37;;;;;;;0.85;0.85;;;;;;;18.00;67.56;101621.22;5113070;28;20367;-79
2023/09/28 06:30:04;;;;;;;0.35;0.35;;;;;;;18.00;67.64;101617.69;5115735;28;20062;-80
2023/09/28 06:32:30;;;;;;;0.73;0.73;;;;;;;18.01;67.78;101622.97;5115344;28;20102;-80
2023/09/28 06:34:56;;;;;;;0.10;0.10;;;;;;;17.95;68.11;101639.28;5116456;28;20059;-80
2023/09/28 06:37:23;;;;;;;0.10;0.10;;;;;;;18.04;68.13;101646.97;5115574;28;20445;-79
2023/09/28 06:39:49;;;;;;;0.10;0.10;;;;;;;18.17;68.08;101649.19;5113655;28;20012;-79
2023/09/28 06:42:15;;;;;;;1.05;1.02;;;;;;;18.34;67.27;101640.47;5113663;28;20036;-80
2023/09/28 06:44:41;;;;;;;2.95;1.65;;;;;;;18.34;67.44;101646.69;5112693;28;20093;-79
2023/09/28 06:47:07;;;;;;;0.47;0.47;;;;;;;18.35;67.60;101659.19;5112022;28;20028;-80
2023/09/28 06:49:34;;;;;;;0.85;0.85;;;;;;;18.49;67.26;101668.50;5113642;28;20019;-80
2023/09/28 06:52:01;;;;;;;0.00;0.00;;;;;;;18.57;67.09;101663.72;5111748;28;20024;-79
2023/09/28 06:54:27;;;;;;;1.13;1.13;;;;;;;18.62;67.03;101674.22;5112378;28;20509;-80
2023/09/28 06:56:53;;;;;;;0.22;0.22;;;;;;;18.71;66.67;101658.63;5112133;28;20031;-79
2023/09/28 06:59:20;;;;;;;0.10;0.10;;;;;;;18.81;66.48;101658.28;5113933;28;20031;-80
2023/09/28 07:01:46;;;;;;;0.10;0.10;;;;;;;18.94;66.04;101639.84;5113114;28;20034;-80
2023/09/28 07:04:12;;;;;;;0.10;0.10;;;;;;;19.08;66.18;101643.69;5113585;28;20124;-79
2023/09/28 07:06:38;;;;;;;4.97;0.40;;;;;;;19.11;65.66;101652.56;5113048;28;20035;-80
2023/09/28 07:09:05;;;;;;;0.38;0.38;;;;;;;19.16;65.46;101642.50;5113795;28;20023;-81
2023/09/28 07:11:32;;;;;;;0.00;0.00;;;;;;;19.18;65.30;101649.53;5115119;28;20401;-81
2023/09/28 07:13:58;;;;;;;1.65;1.45;;;;;;;19.26;64.98;101649.19;5116345;28;20034;-81
2023/09/28 07:16:24;;;;;;;0.00;0.00;;;;;;;19.33;65.00;101653.38;5131317;28;20477;-78
2023/09/28 07:18:50;;;;;;;0.00;0.00;;;;;;;19.44;64.79;101666.34;5128789;28;20032;-81
2023/09/28 07:21:16;;;;;;;4.13;1.30;;;;;;;19.47;64.61;101668.03;5116438;28;20110;-80
2023/09/28 07:23:42;;;;;;;0.10;0.10;;;;;;;19.42;64.35;101672.72;5106942;28;20028;-81
2023/09/28 07:26:16;;;;;;;0.03;0.03;;;;;;;19.58;64.26;101679.16;5103041;28;20038;-81
2023/09/28 07:28:44;;;;;;;0.10;0.10;;;;;;;19.61;64.28;101683.53;5114440;28;20035;-81
2023/09/28 07:31:11;;;;;;;0.25;0.25;;;;;;;19.69;64.01;101681.38;5113886;28;20114;-81
2023/09/28 07:33:37;;;;;;;0.10;0.10;;;;;;;19.61;64.03;101691.59;5114029;28;20019;-79
2023/09/28 07:36:05;;;;;;;0.00;0.00;;;;;;;19.77;63.15;101692.66;5114673;27;20015;-81
2023/09/28 07:38:32;;;;;;;0.35;0.35;;;;;;;19.76;63.65;101690.03;5102892;28;20057;-80
2023/09/28 07:40:59;;;;;;;0.30;0.30;;;;;;;19.82;63.41;101698.69;5105090;28;20038;-80
2023/09/28 07:43:26;;;;;;;0.00;0.00;;;;;;;19.91;62.99;101692.03;5113478;28;20093;-80
2023/09/28 07:45:52;;;;;;;2.53;1.77;;;;;;;19.98;63.03;101704.28;5113725;28;20055;-81
2023/09/28 07:48:18;;;;;;;0.10;0.10;;;;;;;19.98;63.06;101703.41;5113167;28;20066;-81
2023/09/28 07:50:44;;;;;;;0.10;0.10;;;;;;;20.09;63.05;101706.47;5114275;28;20035;-81
2023/09/28 07:53:10;;;;;;;0.73;0.73;;;;;;;20.10;62.64;101707.34;5115688;28;20024;-80
2023/09/28 07:55:37;;;;;;;0.00;0.00;;;;;;;20.04;62.02;101701.31;5117322;28;20382;-80
2023/09/28 07:58:03;;;;;;;0.00;0.00;;;;;;;20.11;61.94;101712.66;5113241;28;20028;-81
2023/09/28 08:00:29;;;;;;;0.10;0.10;;;;;;;20.06;62.23;101735.34;5113801;28;20024;-81
2023/09/28 08:02:55;;;;;;;1.65;1.00;;;;;;;20.01;62.10;101728.34;5113243;28;20032;-81
2023/09/28 08:05:22;;;;;;;0.30;0.30;;;;;;;20.20;62.16;101719.44;5115730;28;20161;-82
2023/09/28 08:07:48;;;;;;;0.15;0.15;;;;;;;20.30;62.02;101717.16;5115965;28;20444;-80
2023/09/28 08:10:15;;;;;;;0.10;0.10;;;;;;;20.32;61.45;101712.59;5116960;28;20081;-81
2023/09/28 08:12:42;;;;;;;0.10;0.10;;;;;;;20.52;61.45;101730.47;5117323;28;20116;-82
2023/09/28 08:15:08;;;;;;;0.03;0.03;;;;;;;20.51;61.22;101731.41;5118081;28;20023;-81
2023/09/28 08:17:39;;;;;;;0.55;0.55;;;;;;;20.57;60.77;101736.50;5118590;28;20031;-81
2023/09/28 08:20:07;;;;;;;2.53;1.60;;;;;;;20.59;60.77;101733.78;5116547;28;20019;-81
2023/09/28 08:22:35;;;;;;;0.00;0.00;;;;;;;20.66;60.61;101744.16;5113857;28;20066;-82
2023/09/28 08:25:05;;;;;;;4.57;1.45;;;;;;;20.59;60.12;101744.53;5116593;28;20462;-81
2023/09/28 08:27:31;;;;;;;0.10;0.10;;;;;;;20.59;60.49;101742.72;5116795;28;20027;-82
2023/09/28 08:29:57;;;;;;;0.75;0.75;;;;;;;20.64;60.56;101746.03;5117157;28;20371;-82
2023/09/28 08:32:23;;;;;;;0.10;0.10;;;;;;;20.48;60.41;101740.53;5116866;28;20087;-82
2023/09/28 08:34:49;;;;;;;0.63;0.55;;;;;;;20.58;60.41;101740.09;5115564;28;20394;-82
2023/09/28 08:37:16;;;;;;;0.60;0.60;;;;;;;20.59;60.50;101741.84;5116576;28;20481;-82
2023/09/28 08:39:42;;;;;;;0.10;0.10;;;;;;;20.53;60.21;101743.00;5115788;28;20031;-82
2023/09/28 08:42:13;;;;;;;0.00;0.00;;;;;;;20.71;60.11;101743.06;5116799;28;20024;-82
2023/09/28 08:44:41;;;;;;;0.13;0.13;;;;;;;20.53;60.05;101751.06;5117274;28;20491;-82
2023/09/28 08:47:16;;;;;;;0.03;0.03;;;;;;;20.67;60.01;101745.91;5105719;28;20370;-82
2023/09/28 08:49:46;;;;;;;0.00;0.00;;;;;;;20.59;59.88;101750.78;5104011;28;20091;-82
2023/09/28 08:52:15;;;;;;;0.00;0.00;;;;;;;20.58;59.92;101757.09;5110675;28;20031;-82
2023/09/28 08:54:42;;;;;;;0.08;0.08;;;;;;;20.63;60.05;101760.44;5109720;28;20027;-80
2023/09/28 08:57:10;;;;;;;0.17;0.17;;;;;;;20.66;59.97;101760.31;5116189;28;20023;-82
2023/09/28 08:59:37;;;;;;;0.35;0.35;;;;;;;20.82;59.79;101767.69;5116466;28;20023;-81
2023/09/28 09:02:04;;;;;;;0.10;0.10;;;;;;;20.78;59.27;101776.88;5114471;28;20110;-81
2023/09/28 09:04:35;;;;;;;0.00;0.00;;;;;;;20.89;58.73;101774.53;5116757;28;20075;-81
2023/09/28 09:07:04;;;;;;;0.10;0.10;;;;;;;20.99;58.27;101777.63;5115779;28;20486;-81
2023/09/28 09:09:33;;;;;;;0.00;0.00;;;;;;;21.14;57.84;101778.69;5118030;28;20103;-79
2023/09/28 09:12:04;;;;;;;0.28;0.28;;;;;;;21.12;57.46;101769.81;5119694;28;20027;-80
2023/09/28 09:14:30;;;;;;;2.13;0.65;;;;;;;21.10;57.43;101769.03;5115750;28;20054;-82
2023/09/28 09:16:56;;;;;;;0.80;0.80;;;;;;;21.12;57.38;101770.69;5115402;28;20057;-81
2023/09/28 09:19:28;;;;;;;0.00;0.00;;;;;;;21.04;57.47;101766.66;5113611;28;20035;-84
2023/09/28 09:21:54;;;;;;;0.10;0.10;;;;;;;21.11;57.07;101773.44;5116117;27;20032;-82
2023/09/28 09:24:21;;;;;;;1.35;0.88;;;;;;;21.15;57.23;101761.59;5115688;28;20034;-82
2023/09/28 09:26:51;;;;;;;0.10;0.10;;;;;;;21.36;57.45;101758.75;5114341;28;20024;-80
2023/09/28 09:29:17;;;;;;;0.00;0.00;;;;;;;21.27;57.53;101749.31;5115047;28;20020;-81
2023/09/28 09:31:45;;;;;;;0.00;0.00;;;;;;;21.49;57.21;101746.38;5115170;28;20053;-80
2023/09/28 09:34:13;;;;;;;0.38;0.38;;;;;;;21.49;56.73;101743.69;5112711;28;20024;-80
2023/09/28 09:36:41;;;;;;;8.63;1.95;;;;;;;21.51;56.33;101752.56;5114850;28;20024;-82
2023/09/28 09:39:19;;;;;;;1.85;1.48;;;;;;;21.53;56.47;101750.66;5116021;28;20583;-81
2023/09/28 09:41:46;;;;;;;0.00;0.00;;;;;;;21.59;56.37;101757.59;5107934;28;20089;-81
2023/09/28 09:44:17;;;;;;;0.05;0.05;;;;;;;21.63;56.29;101756.47;5115047;28;20500;-81
2023/09/28 09:46:45;;;;;;;0.50;0.47;;;;;;;21.66;56.19;101761.72;5114749;28;20470;-80
2023/09/28 09:49:12;;;;;;;0.05;0.05;;;;;;;21.63;55.88;101757.38;5115102;28;20036;-82
2023/09/28 09:51:39;;;;;;;0.20;0.20;;;;;;;21.59;56.23;101733.31;5115239;28;20032;-81
2023/09/28 09:54:08;;;;;;;2.55;0.68;;;;;;;21.73;56.20;101755.06;5113264;28;20035;-81
2023/09/28 09:56:35;;;;;;;1.30;0.75;;;;;;;21.68;56.00;101742.75;5115542;28;20501;-81
2023/09/28 09:59:06;;;;;;;0.00;0.00;;;;;;;21.85;55.88;101753.53;5116047;28;20035;-81
2023/09/28 10:01:34;;;;;;;2.33;1.40;;;;;;;21.88;56.07;101756.06;5111638;28;20101;-81
2023/09/28 10:04:04;;;;;;;0.20;0.20;;;;;;;21.97;55.48;101750.16;5110201;28;20058;-82
2023/09/28 10:06:31;;;;;;;0.05;0.05;;;;;;;21.88;55.76;101757.88;5112683;28;20043;-82
2023/09/28 10:08:58;;;;;;;0.00;0.00;;;;;;;21.93;55.37;101764.78;5112511;28;20452;-80
2023/09/28 10:11:25;;;;;;;0.03;0.03;;;;;;;22.13;55.45;101770.91;5106210;28;20410;-81
2023/09/28 10:13:52;;;;;;;0.10;0.10;;;;;;;22.18;55.05;101767.97;5115114;28;20555;-81
2023/09/28 10:16:19;;;;;;;0.10;0.10;;;;;;;22.24;54.96;101764.94;5114829;28;20114;-80
2023/09/28 10:18:47;;;;;;;3.72;2.13;;;;;;;22.19;54.83;101765.19;5114644;28;20034;-82
2023/09/28 10:21:15;;;;;;;0.20;0.20;;;;;;;22.14;54.55;101767.28;5115219;28;20031;-82
2023/09/28 10:23:42;;;;;;;0.10;0.10;;;;;;;22.09;54.47;101769.34;5115770;28;20404;-82
2023/09/28 10:26:28;;;;;;;0.00;0.00;;;;;;;22.19;54.79;101781.38;5119017;28;20040;-79
2023/09/28 10:29:12;;;;;;;1.98;1.02;;;;;;;21.99;55.09;101785.16;5111498;28;20030;-81
2023/09/28 10:31:42;;;;;;;0.20;0.20;;;;;;;22.05;55.30;101781.28;5108712;28;20031;-82
2023/09/28 10:34:15;;;;;;;1.75;1.65;;;;;;;21.92;55.17;101773.84;5115142;28;20027;-80
2023/09/28 10:36:41;;;;;;;0.38;0.08;;;;;;;21.99;55.35;101779.75;5115455;28;20038;-81
2023/09/28 10:39:13;;;;;;;0.25;0.25;;;;;;;22.02;55.44;101774.22;5116158;28;20023;-82
2023/09/28 10:41:42;;;;;;;0.52;0.30;;;;;;;22.16;55.56;101776.16;5116748;28;20043;-82
2023/09/28 10:44:13;;;;;;;1.90;1.08;;;;;;;22.16;54.72;101786.06;5116287;28;20505;-82
2023/09/28 10:46:41;;;;;;;0.05;0.05;;;;;;;22.19;54.39;101797.56;5110152;28;20056;-82
2023/09/28 10:49:07;;;;;;;0.00;0.00;;;;;;;22.19;54.47;101791.31;5111756;28;20019;-82
2023/09/28 10:51:33;;;;;;;1.02;0.95;;;;;;;22.19;54.60;101802.13;5115767;28;20107;-80
2023/09/28 10:54:05;;;;;;;2.78;1.25;;;;;;;22.28;54.50;101797.09;5115134;28;20022;-81
2023/09/28 10:56:31;;;;;;;0.30;0.30;;;;;;;22.37;54.19;101790.34;5115038;28;20019;-82
2023/09/28 10:58:58;;;;;;;0.00;0.00;;;;;;;22.35;54.89;101792.22;5115208;28;20062;-81
2023/09/28 11:01:25;;;;;;;0.20;0.20;;;;;;;22.18;54.01;101789.56;5114749;28;20035;-81
2023/09/28 11:03:53;;;;;;;0.52;0.52;;;;;;;22.24;54.55;101790.13;5113848;28;20036;-82
2023/09/28 11:06:20;;;;;;;0.93;0.93;;;;;;;22.23;54.69;101799.19;5106559;28;20020;-82
2023/09/28 11:08:46;;;;;;;1.13;1.02;;;;;;;22.17;55.09;101799.50;5109806;28;20039;-82
2023/09/28 11:11:12;;;;;;;0.00;0.00;;;;;;;22.27;54.84;101798.06;5107991;28;20020;-82
2023/09/28 11:13:39;;;;;;;0.20;0.20;;;;;;;22.34;55.19;101800.41;5109280;28;20035;-82
2023/09/28 11:16:05;;;;;;;0.10;0.10;;;;;;;22.48;54.81;101805.97;5113232;28;20097;-82
2023/09/28 11:18:31;;;;;;;0.00;0.00;;;;;;;22.52;55.29;101804.84;5114333;28;20128;-81
2023/09/28 11:20:58;;;;;;;0.00;0.00;;;;;;;22.52;54.41;101810.25;5113977;28;20153;-82
2023/09/28 11:23:24;;;;;;;3.20;1.40;;;;;;;22.54;54.21;101808.34;5113761;28;20035;-82
2023/09/28 11:25:52;;;;;;;0.50;0.50;;;;;;;22.57;54.23;101808.16;5113928;28;20023;-82